createdAt,value
2018-09-08T00:01:14.826Z,95.50
2018-09-08T00:03:44.514Z,95.50
2018-09-08T00:06:16.560Z,95.50
2018-09-08T00:08:46.251Z,95.20
2018-09-08T00:11:15.920Z,95.20
2018-09-08T00:13:45.677Z,95.10
2018-09-08T00:16:20.663Z,95.00
2018-09-08T00:18:55.622Z,95.60
2018-09-08T00:21:30.638Z,95.00
2018-09-08T00:24:05.456Z,95.30
2018-09-08T00:26:34.318Z,95.40
2018-09-08T00:29:22.687Z,95.30
2018-09-08T00:31:52.403Z,95.30
2018-09-08T00:34:22.110Z,94.80
2018-09-08T00:36:51.758Z,95.00
2018-09-08T00:39:21.431Z,94.60
2018-09-08T00:41:51.088Z,95.30
2018-09-08T00:44:20.954Z,95.40
2018-09-08T00:46:50.608Z,95.50
2018-09-08T00:49:20.294Z,94.90
2018-09-08T00:51:49.963Z,95.20
2018-09-08T00:54:19.653Z,95.00
2018-09-08T00:56:49.334Z,95.00
2018-09-08T00:59:19.021Z,94.70
2018-09-08T01:01:48.682Z,94.90
2018-09-08T01:04:18.399Z,94.20
2018-09-08T01:06:48.079Z,94.90
2018-09-08T01:09:17.739Z,94.90
2018-09-08T01:11:47.430Z,95.00
2018-09-08T01:14:17.115Z,94.60
2018-09-08T01:16:46.782Z,94.40
2018-09-08T01:19:16.527Z,94.90
2018-09-08T01:21:46.199Z,95.60
2018-09-08T01:24:15.875Z,95.30
2018-09-08T01:26:45.559Z,95.50
2018-09-08T01:29:15.219Z,95.60
2018-09-08T01:31:44.885Z,95.60
2018-09-08T01:34:14.526Z,95.70
2018-09-08T01:36:44.391Z,95.90
2018-09-08T01:39:14.037Z,95.70
2018-09-08T01:41:43.696Z,96.10
2018-09-08T01:44:13.663Z,95.70
2018-09-08T01:46:43.686Z,95.80
2018-09-08T01:49:13.342Z,95.50
2018-09-08T01:51:43.076Z,95.50
2018-09-08T01:54:12.782Z,95.90
2018-09-08T01:56:42.471Z,96.10
2018-09-08T01:59:12.171Z,96.10
2018-09-08T02:01:41.878Z,95.70
2018-09-08T02:04:11.894Z,95.70
2018-09-08T02:06:42.267Z,95.70
2018-09-08T02:09:11.906Z,96.20
2018-09-08T02:11:41.602Z,95.80
2018-09-08T02:14:11.248Z,95.70
2018-09-08T02:16:40.937Z,95.50
2018-09-08T02:19:10.593Z,95.00
2018-09-08T02:21:40.270Z,95.30
2018-09-08T02:24:09.934Z,95.10
2018-09-08T02:26:39.635Z,95.30
2018-09-08T02:29:09.390Z,95.40
2018-09-08T02:31:39.062Z,95.30
2018-09-08T02:34:08.698Z,95.50
2018-09-08T02:36:38.574Z,95.40
2018-09-08T02:39:09.176Z,95.40
2018-09-08T02:41:38.859Z,96.00
2018-09-08T02:44:08.816Z,95.10
2018-09-08T02:46:38.485Z,95.40
2018-09-08T02:49:08.144Z,95.00
2018-09-08T02:51:36.701Z,95.40
2018-09-08T02:54:05.259Z,96.10
2018-09-08T02:56:33.846Z,95.50
2018-09-08T02:59:02.393Z,95.60
2018-09-08T03:01:30.949Z,95.20
2018-09-08T03:03:59.495Z,95.10
2018-09-08T03:06:28.046Z,95.60
2018-09-08T03:08:56.598Z,96.00
2018-09-08T03:11:25.151Z,96.00
2018-09-08T03:13:53.687Z,96.40
2018-09-08T03:16:22.251Z,96.10
2018-09-08T03:18:50.786Z,96.20
2018-09-08T03:21:19.363Z,96.10
2018-09-08T03:23:47.899Z,96.20
2018-09-08T03:26:17.855Z,96.00
2018-09-08T03:28:47.286Z,96.00
2018-09-08T03:31:15.847Z,96.00
2018-09-08T03:33:44.410Z,96.10
2018-09-08T03:36:12.939Z,96.30
2018-09-08T03:38:41.566Z,96.20
2018-09-08T03:41:10.102Z,96.10
2018-09-08T03:43:38.663Z,95.90
2018-09-08T03:46:07.210Z,96.30
2018-09-08T03:48:35.766Z,95.80
2018-09-08T03:51:04.300Z,96.00
2018-09-08T03:53:32.847Z,96.30
2018-09-08T03:56:01.403Z,96.10
2018-09-08T03:58:29.959Z,96.10
2018-09-08T04:00:58.775Z,95.90
2018-09-08T04:03:28.463Z,95.70
2018-09-08T04:05:58.129Z,96.00
2018-09-08T04:08:27.899Z,96.00
2018-09-08T04:10:57.558Z,96.00
2018-09-08T04:13:27.227Z,95.80
2018-09-08T04:15:56.898Z,95.80
2018-09-08T04:18:26.607Z,95.90
2018-09-08T04:20:56.306Z,96.20
2018-09-08T04:23:26.025Z,96.10
2018-09-08T04:25:55.707Z,96.60
2018-09-08T04:28:25.430Z,96.40
2018-09-08T04:30:55.106Z,96.00
2018-09-08T04:33:24.824Z,96.50
2018-09-08T04:35:54.471Z,96.10
2018-09-08T04:38:24.474Z,96.10
2018-09-08T04:40:54.190Z,96.30
2018-09-08T04:43:24.363Z,96.60
2018-09-08T04:45:54.591Z,96.70
2018-09-08T04:48:24.253Z,96.50
2018-09-08T04:50:53.945Z,96.40
2018-09-08T04:53:23.627Z,96.20
2018-09-08T04:55:53.286Z,96.40
2018-09-08T04:58:22.964Z,96.60
2018-09-08T05:00:52.664Z,96.60
2018-09-08T05:03:22.339Z,96.60
2018-09-08T05:05:52.007Z,96.60
2018-09-08T05:08:21.682Z,96.20
2018-09-08T05:10:51.334Z,96.30
2018-09-08T05:13:21.031Z,97.00
2018-09-08T05:15:51.375Z,96.70
2018-09-08T05:18:21.156Z,96.30
2018-09-08T05:20:51.223Z,96.20
2018-09-08T05:23:20.908Z,96.10
2018-09-08T05:25:50.563Z,95.90
2018-09-08T05:28:20.507Z,96.20
2018-09-08T05:30:50.257Z,96.50
2018-09-08T05:33:20.886Z,96.50
2018-09-08T05:35:50.973Z,96.60
2018-09-08T05:38:20.843Z,96.70
2018-09-08T05:40:50.653Z,96.60
2018-09-08T05:43:20.752Z,97.00
2018-09-08T05:45:50.672Z,97.30
2018-09-08T05:48:20.357Z,96.90
2018-09-08T05:50:50.227Z,97.10
2018-09-08T05:53:19.910Z,97.30
2018-09-08T05:55:49.745Z,96.90
2018-09-08T05:58:19.470Z,96.50
2018-09-08T06:00:49.610Z,96.80
2018-09-08T06:03:19.306Z,97.00
2018-09-08T06:05:48.991Z,96.90
2018-09-08T06:08:18.727Z,97.20
2018-09-08T06:10:48.650Z,97.30
2018-09-08T06:13:18.807Z,97.00
2018-09-08T06:15:48.507Z,97.20
2018-09-08T06:18:18.646Z,96.80
2018-09-08T06:20:48.786Z,96.80
2018-09-08T06:23:18.432Z,96.30
2018-09-08T06:25:48.095Z,96.10
2018-09-08T06:28:17.798Z,95.80
2018-09-08T06:30:47.667Z,95.60
2018-09-08T06:33:17.661Z,95.70
2018-09-08T06:35:47.523Z,95.40
2018-09-08T06:38:17.210Z,94.80
2018-09-08T06:40:46.911Z,94.10
2018-09-08T06:43:16.762Z,93.80
2018-09-08T06:45:46.486Z,93.20
2018-09-08T06:48:16.182Z,93.70
2018-09-08T06:50:45.890Z,93.60
2018-09-08T06:53:15.567Z,92.90
2018-09-08T06:55:45.226Z,93.10
2018-09-08T06:58:14.946Z,92.20
2018-09-08T07:00:44.910Z,92.00
2018-09-08T07:03:14.647Z,92.10
2018-09-08T07:05:44.480Z,92.20
2018-09-08T07:08:14.191Z,92.40
2018-09-08T07:10:43.850Z,92.30
2018-09-08T07:13:13.511Z,92.20
2018-09-08T07:15:43.167Z,92.10
2018-09-08T07:18:12.835Z,92.20
2018-09-08T07:20:42.498Z,92.00
2018-09-08T07:23:12.242Z,91.10
2018-09-08T07:25:41.969Z,90.50
2018-09-08T07:28:11.655Z,89.30
2018-09-08T07:30:41.342Z,89.50
2018-09-08T07:33:11.104Z,88.40
2018-09-08T07:35:40.764Z,89.30
2018-09-08T07:38:10.437Z,89.30
2018-09-08T07:40:40.143Z,88.20
2018-09-08T07:43:09.826Z,85.00
2018-09-08T07:45:39.499Z,87.60
2018-09-08T07:48:09.177Z,85.60
2018-09-08T07:50:38.938Z,86.40
2018-09-08T07:53:08.662Z,86.50
2018-09-08T07:55:38.666Z,84.60
2018-09-08T07:58:08.387Z,85.10
2018-09-08T08:00:38.063Z,85.30
2018-09-08T08:03:08.145Z,83.90
2018-09-08T08:05:37.822Z,83.80
2018-09-08T08:08:07.607Z,83.60
2018-09-08T08:10:37.315Z,81.10
2018-09-08T08:13:07.019Z,81.70
2018-09-08T08:15:36.742Z,81.70
2018-09-08T08:18:06.550Z,81.90
2018-09-08T08:20:36.267Z,81.60
2018-09-08T08:23:06.089Z,81.40
2018-09-08T08:25:36.034Z,83.10
2018-09-08T08:28:05.752Z,84.60
2018-09-08T08:30:35.452Z,80.80
2018-09-08T08:33:08.098Z,78.20
2018-09-08T08:35:37.825Z,78.40
2018-09-08T08:38:07.531Z,78.30
2018-09-08T08:40:37.333Z,80.20
2018-09-08T08:43:07.147Z,80.50
2018-09-08T08:45:37.012Z,79.90
2018-09-08T08:48:06.746Z,78.40
2018-09-08T08:50:47.775Z,75.60
2018-09-08T08:54:29.333Z,75.10
2018-09-08T08:56:58.990Z,77.10
2018-09-08T08:59:28.726Z,74.50
2018-09-08T09:01:58.450Z,75.90
2018-09-08T09:04:28.134Z,76.10
2018-09-08T09:06:58.194Z,76.90
2018-09-08T09:09:27.994Z,71.70
2018-09-08T09:11:57.662Z,74.50
2018-09-08T09:14:27.384Z,74.50
2018-09-08T09:16:57.099Z,74.80
2018-09-08T09:19:39.576Z,72.70
2018-09-08T09:22:21.754Z,73.20
2018-09-08T09:24:56.687Z,72.10
2018-09-08T09:27:26.930Z,74.60
2018-09-08T09:29:56.849Z,73.40
2018-09-08T09:32:26.635Z,73.30
2018-09-08T09:34:56.315Z,74.20
2018-09-08T09:37:26.108Z,71.80
2018-09-08T09:39:56.779Z,73.90
2018-09-08T09:42:26.480Z,75.50
2018-09-08T09:44:56.185Z,75.50
2018-09-08T09:47:25.878Z,76.10
2018-09-08T09:49:55.555Z,76.30
2018-09-08T09:52:25.259Z,77.10
2018-09-08T09:54:54.918Z,76.40
2018-09-08T09:57:24.634Z,74.20
2018-09-08T09:59:54.310Z,75.70
2018-09-08T10:02:38.382Z,73.20
2018-09-08T10:05:10.680Z,77.40
2018-09-08T10:07:40.739Z,76.60
2018-09-08T10:10:13.727Z,77.10
2018-09-08T10:12:43.448Z,77.60
2018-09-08T10:15:13.511Z,73.80
2018-09-08T10:17:44.150Z,78.30
2018-09-08T10:20:15.598Z,79.00
2018-09-08T10:22:45.298Z,74.40
2018-09-08T10:25:16.238Z,74.70
2018-09-08T10:27:46.574Z,76.20
2018-09-08T10:30:16.678Z,76.80
2018-09-08T10:32:47.018Z,77.30
2018-09-08T10:35:16.698Z,76.50
2018-09-08T10:37:46.421Z,77.10
2018-09-08T10:40:16.179Z,76.50
2018-09-08T10:42:46.027Z,78.90
2018-09-08T10:45:20.627Z,77.70
2018-09-08T10:47:50.311Z,75.70
2018-09-08T10:50:20.023Z,77.20
2018-09-08T10:52:49.805Z,75.10
2018-09-08T10:55:19.527Z,75.10
2018-09-08T10:57:49.220Z,75.30
2018-09-08T11:00:18.903Z,77.30
2018-09-08T11:02:48.935Z,78.00
2018-09-08T11:05:18.535Z,79.30
2018-09-08T11:07:48.242Z,74.50
2018-09-08T11:10:17.918Z,76.10
2018-09-08T11:12:47.599Z,76.50
2018-09-08T11:15:17.278Z,74.30
2018-09-08T11:17:46.970Z,77.90
2018-09-08T11:20:16.655Z,75.30
2018-09-08T11:22:46.342Z,76.40
2018-09-08T11:25:17.671Z,78.10
2018-09-08T11:27:47.894Z,74.30
2018-09-08T11:30:17.587Z,75.30
2018-09-08T11:32:47.582Z,76.60
2018-09-08T11:35:17.283Z,75.60
2018-09-08T11:37:47.036Z,76.30
2018-09-08T11:40:16.699Z,76.00
2018-09-08T11:42:46.675Z,75.30
2018-09-08T11:45:22.159Z,76.50
2018-09-08T11:47:51.826Z,75.90
2018-09-08T11:50:21.510Z,75.60
2018-09-08T11:52:51.251Z,77.30
2018-09-08T11:55:21.415Z,76.40
2018-09-08T11:57:51.311Z,77.30
2018-09-08T12:00:21.036Z,76.90
2018-09-08T12:02:50.734Z,75.50
2018-09-08T12:05:20.415Z,73.30
2018-09-08T12:07:50.110Z,73.80
2018-09-08T12:10:19.762Z,73.70
2018-09-08T12:12:49.439Z,74.90
2018-09-08T12:15:19.110Z,74.30
2018-09-08T12:17:48.799Z,74.00
2018-09-08T12:20:18.808Z,76.50
2018-09-08T12:22:48.499Z,75.40
2018-09-08T12:25:18.164Z,74.60
2018-09-08T12:27:47.857Z,75.10
2018-09-08T12:30:17.624Z,75.20
2018-09-08T12:32:47.639Z,74.80
2018-09-08T12:35:17.493Z,74.80
2018-09-08T12:37:47.147Z,75.10
2018-09-08T12:40:16.819Z,75.20
2018-09-08T12:42:46.480Z,73.50
2018-09-08T12:45:16.166Z,73.20
2018-09-08T12:47:45.831Z,73.60
2018-09-08T12:50:15.527Z,73.80
2018-09-08T12:52:45.190Z,75.70
2018-09-08T12:55:14.888Z,72.90
2018-09-08T12:57:44.546Z,73.40
2018-09-08T13:00:14.331Z,75.10
2018-09-08T13:02:44.118Z,72.60
2018-09-08T13:05:13.806Z,72.70
2018-09-08T13:07:43.483Z,72.80
2018-09-08T13:10:13.367Z,73.70
2018-09-08T13:12:43.030Z,72.20
2018-09-08T13:15:12.719Z,75.10
2018-09-08T13:17:42.388Z,73.20
2018-09-08T13:20:12.072Z,71.30
2018-09-08T13:22:41.743Z,70.40
2018-09-08T13:25:11.426Z,71.10
2018-09-08T13:27:41.136Z,70.50
2018-09-08T13:30:11.164Z,70.30
2018-09-08T13:32:40.826Z,69.80
2018-09-08T13:35:10.558Z,71.20
2018-09-08T13:37:40.233Z,73.30
2018-09-08T13:40:09.912Z,72.60
2018-09-08T13:42:39.567Z,71.30
2018-09-08T13:45:09.607Z,69.50
2018-09-08T13:47:39.543Z,70.00
2018-09-08T13:50:09.236Z,70.30
2018-09-08T13:52:38.918Z,69.10
2018-09-08T13:55:08.835Z,70.50
2018-09-08T13:57:38.555Z,69.50
2018-09-08T14:00:08.330Z,68.70
2018-09-08T14:02:38.023Z,69.10
2018-09-08T14:05:07.743Z,68.50
2018-09-08T14:07:41.650Z,68.50
2018-09-08T14:10:11.357Z,67.70
2018-09-08T14:12:41.306Z,68.60
2018-09-08T14:15:11.003Z,69.10
2018-09-08T14:17:40.671Z,68.40
2018-09-08T14:20:10.726Z,67.80
2018-09-08T14:22:40.403Z,69.40
2018-09-08T14:25:10.107Z,68.80
2018-09-08T14:27:39.830Z,69.10
2018-09-08T14:30:09.603Z,68.20
2018-09-08T14:32:39.552Z,66.10
2018-09-08T14:35:09.244Z,66.40
2018-09-08T14:37:38.967Z,67.40
2018-09-08T14:40:08.683Z,66.50
2018-09-08T14:42:38.660Z,66.30
2018-09-08T14:45:09.314Z,68.70
2018-09-08T14:47:39.117Z,70.30
2018-09-08T14:50:09.121Z,67.00
2018-09-08T14:52:38.782Z,64.70
2018-09-08T14:55:08.487Z,66.60
2018-09-08T14:57:38.155Z,66.50
2018-09-08T15:00:07.854Z,68.00
2018-09-08T15:02:37.536Z,67.80
2018-09-08T15:05:07.298Z,67.40
2018-09-08T15:07:36.948Z,68.30
2018-09-08T15:10:07.088Z,67.30
2018-09-08T15:12:36.767Z,65.60
2018-09-08T15:15:06.770Z,67.10
2018-09-08T15:17:36.486Z,66.50
2018-09-08T15:20:06.639Z,66.50
2018-09-08T15:22:36.350Z,67.70
2018-09-08T15:25:06.655Z,68.20
2018-09-08T15:27:36.645Z,68.90
2018-09-08T15:30:06.716Z,68.40
2018-09-08T15:32:36.431Z,66.60
2018-09-08T15:35:06.265Z,69.40
2018-09-08T15:37:36.015Z,69.60
2018-09-08T15:40:05.922Z,68.80
2018-09-08T15:42:35.742Z,70.40
2018-09-08T15:45:05.465Z,69.70
2018-09-08T15:47:35.212Z,68.90
2018-09-08T15:50:04.991Z,70.90
2018-09-08T15:52:34.702Z,69.10
2018-09-08T15:55:04.411Z,70.90
2018-09-08T15:57:34.202Z,68.50
2018-09-08T16:00:04.299Z,67.60
2018-09-08T16:02:34.016Z,71.20
2018-09-08T16:05:03.727Z,70.10
2018-09-08T16:07:33.729Z,71.60
2018-09-08T16:10:03.444Z,70.80
2018-09-08T16:12:33.356Z,71.90
2018-09-08T16:15:03.057Z,69.70
2018-09-08T16:17:32.747Z,68.00
2018-09-08T16:20:02.460Z,68.10
2018-09-08T16:22:32.200Z,68.40
2018-09-08T16:25:01.863Z,69.90
2018-09-08T16:27:31.562Z,72.80
2018-09-08T16:30:01.277Z,72.30
2018-09-08T16:32:30.967Z,72.30
2018-09-08T16:35:00.636Z,73.00
2018-09-08T16:37:30.391Z,73.90
2018-09-08T16:40:00.143Z,72.60
2018-09-08T16:42:29.961Z,74.10
2018-09-08T16:45:05.656Z,75.00
2018-09-08T16:47:35.345Z,76.20
2018-09-08T16:50:05.116Z,76.80
2018-09-08T16:52:35.042Z,75.50
2018-09-08T16:55:04.890Z,75.30
2018-09-08T16:57:34.579Z,75.80
2018-09-08T17:00:04.355Z,77.10
2018-09-08T17:02:34.063Z,76.20
2018-09-08T17:05:03.838Z,76.10
2018-09-08T17:07:33.699Z,76.60
2018-09-08T17:10:03.399Z,77.90
2018-09-08T17:12:33.136Z,77.70
2018-09-08T17:15:02.926Z,78.40
2018-09-08T17:17:32.666Z,78.80
2018-09-08T17:20:02.439Z,79.20
2018-09-08T17:22:32.162Z,78.10
2018-09-08T17:25:02.178Z,79.60
2018-09-08T17:27:31.883Z,80.50
2018-09-08T17:30:01.563Z,81.50
2018-09-08T17:32:31.350Z,81.80
2018-09-08T17:35:01.052Z,81.20
2018-09-08T17:37:30.814Z,81.00
2018-09-08T17:40:00.541Z,81.20
2018-09-08T17:42:30.237Z,81.80
2018-09-08T17:44:59.926Z,82.60
2018-09-08T17:47:29.623Z,83.00
2018-09-08T17:49:59.295Z,83.70
2018-09-08T17:52:28.999Z,83.40
2018-09-08T17:54:58.683Z,84.10
2018-09-08T17:57:28.423Z,84.70
2018-09-08T17:59:58.286Z,83.80
2018-09-08T18:02:27.979Z,84.00
2018-09-08T18:04:57.674Z,83.80
2018-09-08T18:07:27.391Z,84.10
2018-09-08T18:09:57.098Z,84.10
2018-09-08T18:12:26.806Z,84.00
2018-09-08T18:14:56.509Z,83.90
2018-09-08T18:17:26.202Z,84.40
2018-09-08T18:19:56.320Z,84.60
2018-09-08T18:22:33.046Z,84.60
2018-09-08T18:25:02.774Z,84.70
2018-09-08T18:27:32.451Z,84.80
2018-09-08T18:30:02.135Z,85.00
2018-09-08T18:32:31.835Z,84.80
2018-09-08T18:35:01.538Z,84.70
2018-09-08T18:37:31.199Z,84.10
2018-09-08T18:40:00.898Z,85.00
2018-09-08T18:42:30.980Z,85.40
2018-09-08T18:45:00.699Z,85.40
2018-09-08T18:47:30.366Z,86.70
2018-09-08T18:50:00.043Z,86.30
2018-09-08T18:52:29.723Z,86.60
2018-09-08T18:54:59.418Z,86.30
2018-09-08T18:57:29.106Z,86.10
2018-09-08T18:59:58.799Z,85.40
2018-09-08T19:02:28.502Z,84.70
2018-09-08T19:04:58.283Z,84.20
2018-09-08T19:07:28.022Z,85.00
2018-09-08T19:10:03.182Z,84.90
2018-09-08T19:12:33.719Z,84.80
2018-09-08T19:15:08.886Z,85.50
2018-09-08T19:17:38.570Z,85.60
2018-09-08T19:20:14.047Z,85.90
2018-09-08T19:22:43.726Z,85.00
2018-09-08T19:25:13.452Z,84.80
2018-09-08T19:27:43.139Z,85.40
2018-09-08T19:30:12.822Z,86.90
2018-09-08T19:32:42.499Z,87.50
2018-09-08T19:35:19.426Z,88.10
2018-09-08T19:37:49.483Z,88.40
2018-09-08T19:40:24.606Z,88.20
2018-09-08T19:42:54.353Z,88.00
2018-09-08T19:45:24.188Z,87.70
2018-09-08T19:48:00.637Z,87.80
2018-09-08T19:50:30.956Z,87.20
2018-09-08T19:53:06.003Z,87.10
2018-09-08T19:55:35.686Z,87.70
2018-09-08T19:58:10.768Z,87.80
2018-09-08T20:00:41.858Z,88.90
2018-09-08T20:03:11.632Z,88.50
2018-09-08T20:05:41.331Z,89.60
2018-09-08T20:08:11.034Z,88.60
2018-09-08T20:10:40.792Z,88.20
2018-09-08T20:13:10.462Z,87.90
2018-09-08T20:15:40.167Z,86.90
2018-09-08T20:18:09.866Z,87.30
2018-09-08T20:20:39.803Z,86.90
2018-09-08T20:23:10.323Z,86.40
2018-09-08T20:25:41.207Z,86.90
2018-09-08T20:28:10.872Z,87.20
2018-09-08T20:30:40.583Z,87.50
2018-09-08T20:33:10.308Z,87.50
2018-09-08T20:35:40.008Z,88.00
2018-09-08T20:38:09.687Z,88.40
2018-09-08T20:40:39.395Z,88.60
2018-09-08T20:43:09.088Z,88.90
2018-09-08T20:45:38.840Z,89.20
2018-09-08T20:48:08.524Z,89.50
2018-09-08T20:50:38.252Z,89.60
2018-09-08T20:53:08.284Z,89.60
2018-09-08T20:55:37.989Z,90.00
2018-09-08T20:58:07.672Z,90.00
2018-09-08T21:00:37.375Z,89.10
2018-09-08T21:03:07.328Z,89.00
2018-09-08T21:05:37.043Z,89.40
2018-09-08T21:08:06.715Z,89.70
2018-09-08T21:10:36.400Z,89.30
2018-09-08T21:13:06.111Z,89.50
2018-09-08T21:15:36.347Z,90.10
2018-09-08T21:18:06.391Z,89.20
2018-09-08T21:20:36.095Z,89.10
2018-09-08T21:23:05.839Z,89.20
2018-09-08T21:25:35.511Z,89.30
2018-09-08T21:28:05.636Z,89.40
2018-09-08T21:30:35.294Z,89.50
2018-09-08T21:33:08.463Z,89.50
2018-09-08T21:35:38.143Z,89.90
2018-09-08T21:38:07.835Z,90.30
2018-09-08T21:40:37.514Z,90.10
2018-09-08T21:43:07.520Z,90.00
2018-09-08T21:45:37.175Z,90.00
2018-09-08T21:48:06.891Z,90.00
2018-09-08T21:50:36.542Z,90.10
2018-09-08T21:53:06.283Z,90.00
2018-09-08T21:55:35.969Z,90.10
2018-09-08T21:58:05.950Z,90.10
2018-09-08T22:00:35.711Z,90.20
2018-09-08T22:03:05.435Z,90.10
2018-09-08T22:05:35.120Z,90.10
2018-09-08T22:08:04.830Z,90.20
2018-09-08T22:10:34.513Z,90.60
2018-09-08T22:13:04.223Z,90.50
2018-09-08T22:15:33.893Z,90.80
2018-09-08T22:18:03.599Z,90.80
2018-09-08T22:20:33.267Z,90.60
2018-09-08T22:23:02.963Z,90.80
2018-09-08T22:25:32.647Z,91.00
2018-09-08T22:28:02.404Z,90.80
2018-09-08T22:30:32.091Z,90.70
2018-09-08T22:33:01.785Z,90.70
2018-09-08T22:35:31.462Z,91.30
2018-09-08T22:38:01.260Z,91.10
2018-09-08T22:40:30.925Z,91.80
2018-09-08T22:43:00.607Z,91.80
2018-09-08T22:45:30.287Z,91.70
2018-09-08T22:47:59.972Z,92.10
2018-09-08T22:50:29.635Z,91.90
2018-09-08T22:52:59.388Z,92.10
2018-09-08T22:55:29.374Z,92.30
2018-09-08T22:57:59.071Z,91.80
2018-09-08T23:00:28.730Z,92.50
2018-09-08T23:02:58.438Z,92.00
2018-09-08T23:05:28.139Z,92.10
2018-09-08T23:07:58.107Z,92.10
2018-09-08T23:10:27.868Z,92.10
2018-09-08T23:12:57.666Z,92.20
2018-09-08T23:15:27.668Z,92.70
2018-09-08T23:17:57.354Z,92.80
2018-09-08T23:20:27.011Z,92.60
2018-09-08T23:22:56.691Z,92.50
2018-09-08T23:25:26.371Z,93.00
2018-09-08T23:27:56.046Z,92.50
2018-09-08T23:30:25.709Z,92.40
2018-09-08T23:32:55.395Z,92.30
2018-09-08T23:35:25.062Z,92.70
2018-09-08T23:37:54.796Z,92.80
2018-09-08T23:40:24.810Z,93.10
2018-09-08T23:42:54.516Z,92.50
2018-09-08T23:45:24.158Z,92.40
2018-09-08T23:47:53.826Z,92.60
2018-09-08T23:50:23.506Z,93.00
2018-09-08T23:52:53.386Z,93.00
2018-09-08T23:55:23.040Z,92.90
2018-09-08T23:57:52.735Z,93.20
